sensor_id;sensor_type;location;lat;lon;timestamp;P1;durP1;ratioP1;P2;durP2;ratioP2
40022;SDS011;25713;-35.352;149.036;2022-07-23T00:00:24;0.47;;;0.30;;
40022;SDS011;25713;-35.352;149.036;2022-07-23T00:02:54;0.30;;;0.30;;
40022;SDS011;25713;-35.352;149.036;2022-07-23T00:05:23;0.52;;;0.38;;
40022;SDS011;25713;-35.352;149.036;2022-07-23T00:07:53;1.23;;;0.30;;
40022;SDS011;25713;-35.352;149.036;2022-07-23T00:10:22;0.60;;;0.30;;
40022;SDS011;25713;-35.352;149.036;2022-07-23T00:12:52;1.75;;;0.40;;
40022;SDS011;25713;-35.352;149.036;2022-07-23T00:15:23;2.85;;;0.50;;
40022;SDS011;25713;-35.352;149.036;2022-07-23T00:17:53;0.45;;;0.38;;
40022;SDS011;25713;-35.352;149.036;2022-07-23T00:20:22;0.70;;;0.40;;
40022;SDS011;25713;-35.352;149.036;2022-07-23T00:22:52;0.73;;;0.45;;
40022;SDS011;25713;-35.352;149.036;2022-07-23T00:25:22;1.60;;;0.32;;
40022;SDS011;25713;-35.352;149.036;2022-07-23T00:27:52;0.52;;;0.30;;
40022;SDS011;25713;-35.352;149.036;2022-07-23T00:30:24;0.95;;;0.40;;
40022;SDS011;25713;-35.352;149.036;2022-07-23T00:32:55;1.48;;;0.45;;
40022;SDS011;25713;-35.352;149.036;2022-07-23T00:35:26;0.63;;;0.40;;
40022;SDS011;25713;-35.352;149.036;2022-07-23T00:37:56;0.73;;;0.30;;
40022;SDS011;25713;-35.352;149.036;2022-07-23T00:40:26;2.22;;;0.40;;
40022;SDS011;25713;-35.352;149.036;2022-07-23T00:42:57;3.08;;;0.60;;
40022;SDS011;25713;-35.352;149.036;2022-07-23T00:45:29;0.80;;;0.30;;
40022;SDS011;25713;-35.352;149.036;2022-07-23T00:47:58;0.60;;;0.22;;
40022;SDS011;25713;-35.352;149.036;2022-07-23T00:50:29;1.45;;;0.30;;
40022;SDS011;25713;-35.352;149.036;2022-07-23T00:52:59;2.38;;;0.50;;
40022;SDS011;25713;-35.352;149.036;2022-07-23T00:55:28;0.47;;;0.30;;
40022;SDS011;25713;-35.352;149.036;2022-07-23T00:57:58;0.75;;;0.30;;
40022;SDS011;25713;-35.352;149.036;2022-07-23T01:00:31;0.30;;;0.30;;
40022;SDS011;25713;-35.352;149.036;2022-07-23T01:03:00;1.58;;;0.38;;
40022;SDS011;25713;-35.352;149.036;2022-07-23T01:05:30;5.72;;;0.50;;
40022;SDS011;25713;-35.352;149.036;2022-07-23T01:07:59;0.40;;;0.20;;
40022;SDS011;25713;-35.352;149.036;2022-07-23T01:10:29;2.35;;;0.32;;
40022;SDS011;25713;-35.352;149.036;2022-07-23T01:12:59;0.60;;;0.40;;
40022;SDS011;25713;-35.352;149.036;2022-07-23T01:15:32;1.63;;;0.40;;
40022;SDS011;25713;-35.352;149.036;2022-07-23T01:18:02;0.40;;;0.30;;
40022;SDS011;25713;-35.352;149.036;2022-07-23T01:20:33;0.88;;;0.30;;
40022;SDS011;25713;-35.352;149.036;2022-07-23T01:23:04;1.45;;;0.30;;
40022;SDS011;25713;-35.352;149.036;2022-07-23T01:25:35;0.82;;;0.30;;
40022;SDS011;25713;-35.352;149.036;2022-07-23T01:28:06;1.87;;;0.40;;
40022;SDS011;25713;-35.352;149.036;2022-07-23T01:30:36;1.13;;;0.30;;
40022;SDS011;25713;-35.352;149.036;2022-07-23T01:33:08;0.68;;;0.25;;
40022;SDS011;25713;-35.352;149.036;2022-07-23T01:35:37;0.82;;;0.38;;
40022;SDS011;25713;-35.352;149.036;2022-07-23T01:38:11;0.68;;;0.25;;
40022;SDS011;25713;-35.352;149.036;2022-07-23T01:40:41;1.90;;;0.40;;
40022;SDS011;25713;-35.352;149.036;2022-07-23T01:43:11;1.88;;;0.50;;
40022;SDS011;25713;-35.352;149.036;2022-07-23T01:45:41;1.50;;;0.40;;
40022;SDS011;25713;-35.352;149.036;2022-07-23T01:48:10;1.10;;;0.40;;
40022;SDS011;25713;-35.352;149.036;2022-07-23T01:50:46;0.47;;;0.40;;
40022;SDS011;25713;-35.352;149.036;2022-07-23T01:53:35;1.20;;;0.28;;
40022;SDS011;25713;-35.352;149.036;2022-07-23T01:56:05;1.50;;;0.30;;
40022;SDS011;25713;-35.352;149.036;2022-07-23T01:58:35;0.98;;;0.43;;
40022;SDS011;25713;-35.352;149.036;2022-07-23T02:01:05;5.05;;;0.40;;
40022;SDS011;25713;-35.352;149.036;2022-07-23T02:03:34;2.13;;;0.50;;
40022;SDS011;25713;-35.352;149.036;2022-07-23T02:06:04;0.57;;;0.30;;
40022;SDS011;25713;-35.352;149.036;2022-07-23T02:08:36;0.38;;;0.30;;
40022;SDS011;25713;-35.352;149.036;2022-07-23T02:11:05;2.83;;;0.52;;
40022;SDS011;25713;-35.352;149.036;2022-07-23T02:13:34;0.38;;;0.20;;
40022;SDS011;25713;-35.352;149.036;2022-07-23T02:16:07;1.13;;;0.63;;
40022;SDS011;25713;-35.352;149.036;2022-07-23T02:18:36;1.80;;;0.30;;
40022;SDS011;25713;-35.352;149.036;2022-07-23T02:21:06;2.20;;;0.45;;
40022;SDS011;25713;-35.352;149.036;2022-07-23T02:23:37;1.48;;;0.50;;
40022;SDS011;25713;-35.352;149.036;2022-07-23T02:26:06;1.42;;;0.50;;
40022;SDS011;25713;-35.352;149.036;2022-07-23T02:28:36;1.25;;;0.30;;
40022;SDS011;25713;-35.352;149.036;2022-07-23T02:31:06;0.32;;;0.30;;
40022;SDS011;25713;-35.352;149.036;2022-07-23T02:33:36;0.30;;;0.28;;
40022;SDS011;25713;-35.352;149.036;2022-07-23T02:36:05;1.20;;;0.47;;
40022;SDS011;25713;-35.352;149.036;2022-07-23T02:38:38;0.68;;;0.30;;
40022;SDS011;25713;-35.352;149.036;2022-07-23T02:41:08;0.60;;;0.20;;
40022;SDS011;25713;-35.352;149.036;2022-07-23T02:43:38;2.95;;;0.40;;
40022;SDS011;25713;-35.352;149.036;2022-07-23T02:46:13;0.50;;;0.30;;
40022;SDS011;25713;-35.352;149.036;2022-07-23T02:48:43;0.82;;;0.30;;
40022;SDS011;25713;-35.352;149.036;2022-07-23T02:51:12;0.47;;;0.30;;
40022;SDS011;25713;-35.352;149.036;2022-07-23T02:53:48;1.85;;;0.30;;
40022;SDS011;25713;-35.352;149.036;2022-07-23T02:56:18;1.53;;;0.30;;
40022;SDS011;25713;-35.352;149.036;2022-07-23T02:58:47;3.20;;;0.50;;
40022;SDS011;25713;-35.352;149.036;2022-07-23T03:01:17;1.90;;;0.65;;
40022;SDS011;25713;-35.352;149.036;2022-07-23T03:03:47;0.70;;;0.30;;
40022;SDS011;25713;-35.352;149.036;2022-07-23T03:06:16;0.65;;;0.25;;
40022;SDS011;25713;-35.352;149.036;2022-07-23T03:08:47;1.20;;;0.40;;
40022;SDS011;25713;-35.352;149.036;2022-07-23T03:11:17;1.52;;;0.60;;
40022;SDS011;25713;-35.352;149.036;2022-07-23T03:13:47;1.48;;;0.30;;
40022;SDS011;25713;-35.352;149.036;2022-07-23T03:16:16;0.65;;;0.30;;
40022;SDS011;25713;-35.352;149.036;2022-07-23T03:18:46;2.40;;;0.30;;
40022;SDS011;25713;-35.352;149.036;2022-07-23T03:21:15;0.88;;;0.30;;
40022;SDS011;25713;-35.352;149.036;2022-07-23T03:23:44;1.05;;;0.30;;
40022;SDS011;25713;-35.352;149.036;2022-07-23T03:26:18;2.83;;;0.43;;
40022;SDS011;25713;-35.352;149.036;2022-07-23T03:28:48;0.57;;;0.30;;
40022;SDS011;25713;-35.352;149.036;2022-07-23T03:31:17;1.08;;;0.30;;
40022;SDS011;25713;-35.352;149.036;2022-07-23T03:33:46;1.73;;;0.40;;
40022;SDS011;25713;-35.352;149.036;2022-07-23T03:36:18;0.60;;;0.35;;
40022;SDS011;25713;-35.352;149.036;2022-07-23T03:38:49;0.60;;;0.40;;
40022;SDS011;25713;-35.352;149.036;2022-07-23T03:41:19;0.47;;;0.30;;
40022;SDS011;25713;-35.352;149.036;2022-07-23T03:43:49;0.63;;;0.30;;
40022;SDS011;25713;-35.352;149.036;2022-07-23T03:46:18;1.67;;;0.40;;
40022;SDS011;25713;-35.352;149.036;2022-07-23T03:48:48;0.63;;;0.32;;
40022;SDS011;25713;-35.352;149.036;2022-07-23T03:51:17;0.45;;;0.30;;
40022;SDS011;25713;-35.352;149.036;2022-07-23T03:53:46;0.80;;;0.38;;
40022;SDS011;25713;-35.352;149.036;2022-07-23T03:56:17;0.70;;;0.30;;
40022;SDS011;25713;-35.352;149.036;2022-07-23T03:58:47;1.20;;;0.30;;
40022;SDS011;25713;-35.352;149.036;2022-07-23T04:01:17;0.50;;;0.32;;
40022;SDS011;25713;-35.352;149.036;2022-07-23T04:03:46;2.20;;;0.40;;
40022;SDS011;25713;-35.352;149.036;2022-07-23T04:06:15;0.90;;;0.30;;
40022;SDS011;25713;-35.352;149.036;2022-07-23T04:08:50;1.33;;;0.40;;
40022;SDS011;25713;-35.352;149.036;2022-07-23T04:11:20;0.30;;;0.20;;
40022;SDS011;25713;-35.352;149.036;2022-07-23T04:13:49;1.55;;;0.30;;
40022;SDS011;25713;-35.352;149.036;2022-07-23T04:16:20;2.65;;;0.38;;
40022;SDS011;25713;-35.352;149.036;2022-07-23T04:18:50;1.77;;;0.40;;
40022;SDS011;25713;-35.352;149.036;2022-07-23T04:21:22;1.75;;;0.47;;
40022;SDS011;25713;-35.352;149.036;2022-07-23T04:23:53;3.13;;;0.50;;
40022;SDS011;25713;-35.352;149.036;2022-07-23T04:26:23;1.20;;;0.40;;
40022;SDS011;25713;-35.352;149.036;2022-07-23T04:28:53;2.63;;;0.47;;
40022;SDS011;25713;-35.352;149.036;2022-07-23T04:31:22;0.85;;;0.50;;
40022;SDS011;25713;-35.352;149.036;2022-07-23T04:33:51;1.98;;;0.40;;
40022;SDS011;25713;-35.352;149.036;2022-07-23T04:36:21;0.98;;;0.32;;
40022;SDS011;25713;-35.352;149.036;2022-07-23T04:38:51;1.67;;;0.40;;
40022;SDS011;25713;-35.352;149.036;2022-07-23T04:41:22;0.75;;;0.40;;
40022;SDS011;25713;-35.352;149.036;2022-07-23T04:43:52;0.77;;;0.30;;
40022;SDS011;25713;-35.352;149.036;2022-07-23T04:46:21;1.10;;;0.38;;
40022;SDS011;25713;-35.352;149.036;2022-07-23T04:48:52;1.52;;;0.45;;
40022;SDS011;25713;-35.352;149.036;2022-07-23T04:51:22;2.35;;;0.50;;
40022;SDS011;25713;-35.352;149.036;2022-07-23T04:53:51;0.77;;;0.32;;
40022;SDS011;25713;-35.352;149.036;2022-07-23T04:56:23;1.15;;;0.20;;
40022;SDS011;25713;-35.352;149.036;2022-07-23T04:58:52;0.20;;;0.20;;
40022;SDS011;25713;-35.352;149.036;2022-07-23T05:01:22;0.60;;;0.20;;
40022;SDS011;25713;-35.352;149.036;2022-07-23T05:03:51;1.35;;;0.30;;
40022;SDS011;25713;-35.352;149.036;2022-07-23T05:06:21;0.85;;;0.30;;
40022;SDS011;25713;-35.352;149.036;2022-07-23T05:08:50;1.83;;;0.30;;
40022;SDS011;25713;-35.352;149.036;2022-07-23T05:11:22;1.83;;;0.70;;
40022;SDS011;25713;-35.352;149.036;2022-07-23T05:13:51;0.73;;;0.30;;
40022;SDS011;25713;-35.352;149.036;2022-07-23T05:16:22;0.82;;;0.30;;
40022;SDS011;25713;-35.352;149.036;2022-07-23T05:18:53;1.40;;;0.60;;
40022;SDS011;25713;-35.352;149.036;2022-07-23T05:21:23;0.28;;;0.20;;
40022;SDS011;25713;-35.352;149.036;2022-07-23T05:23:53;1.92;;;0.20;;
40022;SDS011;25713;-35.352;149.036;2022-07-23T05:26:25;1.38;;;0.22;;
40022;SDS011;25713;-35.352;149.036;2022-07-23T05:28:54;0.30;;;0.25;;
40022;SDS011;25713;-35.352;149.036;2022-07-23T05:31:23;1.45;;;0.20;;
40022;SDS011;25713;-35.352;149.036;2022-07-23T05:33:53;0.55;;;0.20;;
40022;SDS011;25713;-35.352;149.036;2022-07-23T05:36:22;0.75;;;0.38;;
40022;SDS011;25713;-35.352;149.036;2022-07-23T05:38:55;0.40;;;0.32;;
40022;SDS011;25713;-35.352;149.036;2022-07-23T05:41:26;2.13;;;0.40;;
40022;SDS011;25713;-35.352;149.036;2022-07-23T05:43:56;0.47;;;0.28;;
40022;SDS011;25713;-35.352;149.036;2022-07-23T05:46:26;0.25;;;0.25;;
40022;SDS011;25713;-35.352;149.036;2022-07-23T05:48:59;1.30;;;0.40;;
40022;SDS011;25713;-35.352;149.036;2022-07-23T05:51:49;1.75;;;0.32;;
40022;SDS011;25713;-35.352;149.036;2022-07-23T05:54:27;1.15;;;0.40;;
40022;SDS011;25713;-35.352;149.036;2022-07-23T05:56:58;1.65;;;0.35;;
40022;SDS011;25713;-35.352;149.036;2022-07-23T05:59:28;1.40;;;0.33;;
40022;SDS011;25713;-35.352;149.036;2022-07-23T06:01:58;1.17;;;0.50;;
40022;SDS011;25713;-35.352;149.036;2022-07-23T06:04:27;2.28;;;0.80;;
40022;SDS011;25713;-35.352;149.036;2022-07-23T06:07:20;1.58;;;0.80;;
40022;SDS011;25713;-35.352;149.036;2022-07-23T06:09:50;2.25;;;1.08;;
40022;SDS011;25713;-35.352;149.036;2022-07-23T06:12:22;2.15;;;0.80;;
40022;SDS011;25713;-35.352;149.036;2022-07-23T06:14:51;3.35;;;0.82;;
40022;SDS011;25713;-35.352;149.036;2022-07-23T06:17:21;1.55;;;0.73;;
40022;SDS011;25713;-35.352;149.036;2022-07-23T06:19:51;1.05;;;0.70;;
40022;SDS011;25713;-35.352;149.036;2022-07-23T06:22:20;1.90;;;0.60;;
40022;SDS011;25713;-35.352;149.036;2022-07-23T06:24:50;0.90;;;0.50;;
40022;SDS011;25713;-35.352;149.036;2022-07-23T06:27:23;1.25;;;0.70;;
40022;SDS011;25713;-35.352;149.036;2022-07-23T06:29:52;0.80;;;0.50;;
40022;SDS011;25713;-35.352;149.036;2022-07-23T06:32:21;2.22;;;0.63;;
40022;SDS011;25713;-35.352;149.036;2022-07-23T06:34:51;0.60;;;0.52;;
40022;SDS011;25713;-35.352;149.036;2022-07-23T06:37:21;2.38;;;0.63;;
40022;SDS011;25713;-35.352;149.036;2022-07-23T06:39:51;0.65;;;0.50;;
40022;SDS011;25713;-35.352;149.036;2022-07-23T06:42:22;3.20;;;0.75;;
40022;SDS011;25713;-35.352;149.036;2022-07-23T06:44:58;0.98;;;0.60;;
40022;SDS011;25713;-35.352;149.036;2022-07-23T06:47:28;1.02;;;0.68;;
40022;SDS011;25713;-35.352;149.036;2022-07-23T06:49:57;2.42;;;0.80;;
40022;SDS011;25713;-35.352;149.036;2022-07-23T06:52:26;0.90;;;0.50;;
40022;SDS011;25713;-35.352;149.036;2022-07-23T06:54:56;0.82;;;0.60;;
40022;SDS011;25713;-35.352;149.036;2022-07-23T06:57:27;1.77;;;0.60;;
40022;SDS011;25713;-35.352;149.036;2022-07-23T06:59:57;1.08;;;0.55;;
40022;SDS011;25713;-35.352;149.036;2022-07-23T07:02:27;1.00;;;0.65;;
40022;SDS011;25713;-35.352;149.036;2022-07-23T07:04:56;1.17;;;0.60;;
40022;SDS011;25713;-35.352;149.036;2022-07-23T07:07:26;0.95;;;0.60;;
40022;SDS011;25713;-35.352;149.036;2022-07-23T07:09:55;0.60;;;0.50;;
40022;SDS011;25713;-35.352;149.036;2022-07-23T07:12:25;1.60;;;0.70;;
40022;SDS011;25713;-35.352;149.036;2022-07-23T07:14:56;2.90;;;0.70;;
40022;SDS011;25713;-35.352;149.036;2022-07-23T07:17:25;1.25;;;0.70;;
40022;SDS011;25713;-35.352;149.036;2022-07-23T07:19:55;2.25;;;0.70;;
40022;SDS011;25713;-35.352;149.036;2022-07-23T07:22:24;2.03;;;0.80;;
40022;SDS011;25713;-35.352;149.036;2022-07-23T07:24:54;0.93;;;0.80;;
40022;SDS011;25713;-35.352;149.036;2022-07-23T07:27:23;1.48;;;0.80;;
40022;SDS011;25713;-35.352;149.036;2022-07-23T07:29:55;1.10;;;0.90;;
40022;SDS011;25713;-35.352;149.036;2022-07-23T07:32:24;1.27;;;0.75;;
40022;SDS011;25713;-35.352;149.036;2022-07-23T07:34:53;3.75;;;0.90;;
40022;SDS011;25713;-35.352;149.036;2022-07-23T07:37:23;2.67;;;1.30;;
40022;SDS011;25713;-35.352;149.036;2022-07-23T07:39:52;1.98;;;1.10;;
40022;SDS011;25713;-35.352;149.036;2022-07-23T07:42:22;1.50;;;0.90;;
40022;SDS011;25713;-35.352;149.036;2022-07-23T07:44:51;1.55;;;1.30;;
40022;SDS011;25713;-35.352;149.036;2022-07-23T07:47:22;2.03;;;1.50;;
40022;SDS011;25713;-35.352;149.036;2022-07-23T07:49:52;4.78;;;1.60;;
40022;SDS011;25713;-35.352;149.036;2022-07-23T07:52:21;2.35;;;1.40;;
40022;SDS011;25713;-35.352;149.036;2022-07-23T07:54:51;2.88;;;1.40;;
40022;SDS011;25713;-35.352;149.036;2022-07-23T07:57:20;2.85;;;1.40;;
40022;SDS011;25713;-35.352;149.036;2022-07-23T07:59:50;3.83;;;1.75;;
40022;SDS011;25713;-35.352;149.036;2022-07-23T08:02:21;3.00;;;1.98;;
40022;SDS011;25713;-35.352;149.036;2022-07-23T08:04:50;4.55;;;2.10;;
40022;SDS011;25713;-35.352;149.036;2022-07-23T08:07:22;3.42;;;1.88;;
40022;SDS011;25713;-35.352;149.036;2022-07-23T08:09:52;2.63;;;2.13;;
40022;SDS011;25713;-35.352;149.036;2022-07-23T08:12:21;3.38;;;1.92;;
40022;SDS011;25713;-35.352;149.036;2022-07-23T08:14:50;3.53;;;2.20;;
40022;SDS011;25713;-35.352;149.036;2022-07-23T08:17:21;3.42;;;1.83;;
40022;SDS011;25713;-35.352;149.036;2022-07-23T08:19:51;3.97;;;2.15;;
40022;SDS011;25713;-35.352;149.036;2022-07-23T08:22:20;5.13;;;2.10;;
40022;SDS011;25713;-35.352;149.036;2022-07-23T08:24:49;2.50;;;1.73;;
40022;SDS011;25713;-35.352;149.036;2022-07-23T08:27:19;2.90;;;1.80;;
40022;SDS011;25713;-35.352;149.036;2022-07-23T08:29:48;4.60;;;1.90;;
40022;SDS011;25713;-35.352;149.036;2022-07-23T08:32:18;2.83;;;1.70;;
40022;SDS011;25713;-35.352;149.036;2022-07-23T08:34:49;3.13;;;2.03;;
40022;SDS011;25713;-35.352;149.036;2022-07-23T08:37:18;2.70;;;1.80;;
40022;SDS011;25713;-35.352;149.036;2022-07-23T08:39:48;2.33;;;1.77;;
40022;SDS011;25713;-35.352;149.036;2022-07-23T08:42:17;2.97;;;1.80;;
40022;SDS011;25713;-35.352;149.036;2022-07-23T08:44:48;3.30;;;1.55;;
40022;SDS011;25713;-35.352;149.036;2022-07-23T08:47:18;3.15;;;1.83;;
40022;SDS011;25713;-35.352;149.036;2022-07-23T08:49:49;3.03;;;1.63;;
40022;SDS011;25713;-35.352;149.036;2022-07-23T08:52:18;2.97;;;1.55;;
40022;SDS011;25713;-35.352;149.036;2022-07-23T08:54:48;2.58;;;1.45;;
40022;SDS011;25713;-35.352;149.036;2022-07-23T08:57:18;2.75;;;1.77;;
40022;SDS011;25713;-35.352;149.036;2022-07-23T08:59:47;4.93;;;1.80;;
40022;SDS011;25713;-35.352;149.036;2022-07-23T09:02:17;2.05;;;1.40;;
40022;SDS011;25713;-35.352;149.036;2022-07-23T09:04:48;2.95;;;1.92;;
40022;SDS011;25713;-35.352;149.036;2022-07-23T09:07:18;3.58;;;1.85;;
40022;SDS011;25713;-35.352;149.036;2022-07-23T09:09:47;2.05;;;1.50;;
40022;SDS011;25713;-35.352;149.036;2022-07-23T09:12:33;2.85;;;1.50;;
40022;SDS011;25713;-35.352;149.036;2022-07-23T09:15:06;2.85;;;1.88;;
40022;SDS011;25713;-35.352;149.036;2022-07-23T09:17:40;2.33;;;1.45;;
40022;SDS011;25713;-35.352;149.036;2022-07-23T09:20:13;3.60;;;1.50;;
40022;SDS011;25713;-35.352;149.036;2022-07-23T09:22:44;1.85;;;1.52;;
40022;SDS011;25713;-35.352;149.036;2022-07-23T09:25:15;5.03;;;1.67;;
40022;SDS011;25713;-35.352;149.036;2022-07-23T09:27:46;3.05;;;1.73;;
40022;SDS011;25713;-35.352;149.036;2022-07-23T09:30:21;2.67;;;1.50;;
40022;SDS011;25713;-35.352;149.036;2022-07-23T09:33:09;2.50;;;1.70;;
40022;SDS011;25713;-35.352;149.036;2022-07-23T09:35:46;3.90;;;1.70;;
40022;SDS011;25713;-35.352;149.036;2022-07-23T09:38:18;3.15;;;1.38;;
40022;SDS011;25713;-35.352;149.036;2022-07-23T09:43:33;1.95;;;1.30;;
40022;SDS011;25713;-35.352;149.036;2022-07-23T09:46:22;2.45;;;1.50;;
40022;SDS011;25713;-35.352;149.036;2022-07-23T09:48:53;3.67;;;1.80;;
40022;SDS011;25713;-35.352;149.036;2022-07-23T09:51:24;1.63;;;1.08;;
40022;SDS011;25713;-35.352;149.036;2022-07-23T09:53:55;1.95;;;1.30;;
40022;SDS011;25713;-35.352;149.036;2022-07-23T09:56:24;3.45;;;1.40;;
40022;SDS011;25713;-35.352;149.036;2022-07-23T09:58:55;1.95;;;1.30;;
40022;SDS011;25713;-35.352;149.036;2022-07-23T10:01:25;1.83;;;1.20;;
40022;SDS011;25713;-35.352;149.036;2022-07-23T10:03:57;1.98;;;1.30;;
40022;SDS011;25713;-35.352;149.036;2022-07-23T10:06:48;2.03;;;1.35;;
40022;SDS011;25713;-35.352;149.036;2022-07-23T10:09:39;2.90;;;1.20;;
40022;SDS011;25713;-35.352;149.036;2022-07-23T10:12:28;2.75;;;1.45;;
40022;SDS011;25713;-35.352;149.036;2022-07-23T10:15:01;4.00;;;1.50;;
40022;SDS011;25713;-35.352;149.036;2022-07-23T10:17:31;2.17;;;1.55;;
40022;SDS011;25713;-35.352;149.036;2022-07-23T10:20:01;3.40;;;1.60;;
40022;SDS011;25713;-35.352;149.036;2022-07-23T10:22:33;2.95;;;1.70;;
40022;SDS011;25713;-35.352;149.036;2022-07-23T10:25:08;2.55;;;1.98;;
40022;SDS011;25713;-35.352;149.036;2022-07-23T10:27:43;3.25;;;2.00;;
40022;SDS011;25713;-35.352;149.036;2022-07-23T10:30:22;4.50;;;1.58;;
40022;SDS011;25713;-35.352;149.036;2022-07-23T10:33:02;3.63;;;1.70;;
40022;SDS011;25713;-35.352;149.036;2022-07-23T10:35:44;2.45;;;1.67;;
40022;SDS011;25713;-35.352;149.036;2022-07-23T10:38:23;2.50;;;1.58;;
40022;SDS011;25713;-35.352;149.036;2022-07-23T10:40:57;3.00;;;1.73;;
40022;SDS011;25713;-35.352;149.036;2022-07-23T10:43:28;2.35;;;1.50;;
40022;SDS011;25713;-35.352;149.036;2022-07-23T10:54:47;3.00;;;1.70;;
40022;SDS011;25713;-35.352;149.036;2022-07-23T10:57:19;3.83;;;1.58;;
40022;SDS011;25713;-35.352;149.036;2022-07-23T11:02:44;2.50;;;1.65;;
40022;SDS011;25713;-35.352;149.036;2022-07-23T11:05:15;2.22;;;1.48;;
40022;SDS011;25713;-35.352;149.036;2022-07-23T11:10:55;1.80;;;1.38;;
40022;SDS011;25713;-35.352;149.036;2022-07-23T11:13:40;2.63;;;1.50;;
40022;SDS011;25713;-35.352;149.036;2022-07-23T11:16:14;2.65;;;1.60;;
40022;SDS011;25713;-35.352;149.036;2022-07-23T11:18:58;4.10;;;1.80;;
40022;SDS011;25713;-35.352;149.036;2022-07-23T11:24:28;2.78;;;1.70;;
40022;SDS011;25713;-35.352;149.036;2022-07-23T11:27:03;2.70;;;1.70;;
40022;SDS011;25713;-35.352;149.036;2022-07-23T11:29:42;3.67;;;1.88;;
40022;SDS011;25713;-35.352;149.036;2022-07-23T11:32:24;3.17;;;1.42;;
40022;SDS011;25713;-35.352;149.036;2022-07-23T11:35:21;4.93;;;1.60;;
40022;SDS011;25713;-35.352;149.036;2022-07-23T11:37:53;1.83;;;1.42;;
40022;SDS011;25713;-35.352;149.036;2022-07-23T11:40:30;3.15;;;1.60;;
40022;SDS011;25713;-35.352;149.036;2022-07-23T11:43:03;3.10;;;1.50;;
40022;SDS011;25713;-35.352;149.036;2022-07-23T11:45:34;1.92;;;1.60;;
40022;SDS011;25713;-35.352;149.036;2022-07-23T11:48:05;2.97;;;1.63;;
40022;SDS011;25713;-35.352;149.036;2022-07-23T11:50:36;3.45;;;1.88;;
40022;SDS011;25713;-35.352;149.036;2022-07-23T11:53:06;2.75;;;1.80;;
40022;SDS011;25713;-35.352;149.036;2022-07-23T11:55:35;3.03;;;1.40;;
40022;SDS011;25713;-35.352;149.036;2022-07-23T11:58:07;3.40;;;1.80;;
40022;SDS011;25713;-35.352;149.036;2022-07-23T12:00:39;2.65;;;1.85;;
40022;SDS011;25713;-35.352;149.036;2022-07-23T12:03:10;4.82;;;1.38;;
40022;SDS011;25713;-35.352;149.036;2022-07-23T12:05:39;2.70;;;1.60;;
40022;SDS011;25713;-35.352;149.036;2022-07-23T12:08:09;3.30;;;1.50;;
40022;SDS011;25713;-35.352;149.036;2022-07-23T12:10:39;2.65;;;1.27;;
40022;SDS011;25713;-35.352;149.036;2022-07-23T12:13:12;3.63;;;1.70;;
40022;SDS011;25713;-35.352;149.036;2022-07-23T12:15:42;3.22;;;1.58;;
40022;SDS011;25713;-35.352;149.036;2022-07-23T12:18:12;3.75;;;1.70;;
40022;SDS011;25713;-35.352;149.036;2022-07-23T12:20:45;3.38;;;1.17;;
40022;SDS011;25713;-35.352;149.036;2022-07-23T12:23:15;3.45;;;1.63;;
40022;SDS011;25713;-35.352;149.036;2022-07-23T12:25:46;2.80;;;1.52;;
40022;SDS011;25713;-35.352;149.036;2022-07-23T12:28:18;2.03;;;1.33;;
40022;SDS011;25713;-35.352;149.036;2022-07-23T12:30:49;3.13;;;1.35;;
40022;SDS011;25713;-35.352;149.036;2022-07-23T12:33:22;2.58;;;1.33;;
40022;SDS011;25713;-35.352;149.036;2022-07-23T12:35:53;2.72;;;1.02;;
40022;SDS011;25713;-35.352;149.036;2022-07-23T12:38:23;3.53;;;1.40;;
40022;SDS011;25713;-35.352;149.036;2022-07-23T12:40:54;3.63;;;1.27;;
40022;SDS011;25713;-35.352;149.036;2022-07-23T12:43:27;3.60;;;1.60;;
40022;SDS011;25713;-35.352;149.036;2022-07-23T12:46:02;2.72;;;1.20;;
40022;SDS011;25713;-35.352;149.036;2022-07-23T12:48:33;3.28;;;1.35;;
40022;SDS011;25713;-35.352;149.036;2022-07-23T12:51:04;1.67;;;1.25;;
40022;SDS011;25713;-35.352;149.036;2022-07-23T12:53:37;1.88;;;1.10;;
40022;SDS011;25713;-35.352;149.036;2022-07-23T12:56:09;2.65;;;1.20;;
40022;SDS011;25713;-35.352;149.036;2022-07-23T12:58:43;1.58;;;0.90;;
40022;SDS011;25713;-35.352;149.036;2022-07-23T13:01:24;1.08;;;0.77;;
40022;SDS011;25713;-35.352;149.036;2022-07-23T13:03:56;3.53;;;1.42;;
40022;SDS011;25713;-35.352;149.036;2022-07-23T13:06:26;3.17;;;1.25;;
40022;SDS011;25713;-35.352;149.036;2022-07-23T13:08:57;1.52;;;1.00;;
40022;SDS011;25713;-35.352;149.036;2022-07-23T13:11:27;1.55;;;0.90;;
40022;SDS011;25713;-35.352;149.036;2022-07-23T13:13:58;2.63;;;0.93;;
40022;SDS011;25713;-35.352;149.036;2022-07-23T13:16:28;1.88;;;1.13;;
40022;SDS011;25713;-35.352;149.036;2022-07-23T13:18:58;2.08;;;0.90;;
40022;SDS011;25713;-35.352;149.036;2022-07-23T13:21:28;1.42;;;1.02;;
40022;SDS011;25713;-35.352;149.036;2022-07-23T13:26:54;2.47;;;1.15;;
40022;SDS011;25713;-35.352;149.036;2022-07-23T13:29:25;2.25;;;1.02;;
40022;SDS011;25713;-35.352;149.036;2022-07-23T13:31:55;1.65;;;1.40;;
40022;SDS011;25713;-35.352;149.036;2022-07-23T13:34:25;1.38;;;1.17;;
40022;SDS011;25713;-35.352;149.036;2022-07-23T13:36:54;3.78;;;0.90;;
40022;SDS011;25713;-35.352;149.036;2022-07-23T13:39:23;2.47;;;1.08;;
40022;SDS011;25713;-35.352;149.036;2022-07-23T13:41:53;2.15;;;1.05;;
40022;SDS011;25713;-35.352;149.036;2022-07-23T13:44:25;2.80;;;1.30;;
40022;SDS011;25713;-35.352;149.036;2022-07-23T13:46:55;1.70;;;1.00;;
40022;SDS011;25713;-35.352;149.036;2022-07-23T13:49:25;1.58;;;1.00;;
40022;SDS011;25713;-35.352;149.036;2022-07-23T13:51:54;2.88;;;1.10;;
40022;SDS011;25713;-35.352;149.036;2022-07-23T13:54:24;2.00;;;0.80;;
40022;SDS011;25713;-35.352;149.036;2022-07-23T13:56:53;1.77;;;1.00;;
40022;SDS011;25713;-35.352;149.036;2022-07-23T13:59:23;2.40;;;1.00;;
40022;SDS011;25713;-35.352;149.036;2022-07-23T14:01:55;1.10;;;0.90;;
40022;SDS011;25713;-35.352;149.036;2022-07-23T14:04:24;1.70;;;0.80;;
40022;SDS011;25713;-35.352;149.036;2022-07-23T14:06:53;1.33;;;0.80;;
40022;SDS011;25713;-35.352;149.036;2022-07-23T14:09:23;1.92;;;1.02;;
40022;SDS011;25713;-35.352;149.036;2022-07-23T14:11:53;1.42;;;0.80;;
40022;SDS011;25713;-35.352;149.036;2022-07-23T14:14:23;1.15;;;0.70;;
40022;SDS011;25713;-35.352;149.036;2022-07-23T14:16:54;1.17;;;1.00;;
40022;SDS011;25713;-35.352;149.036;2022-07-23T14:19:23;2.17;;;0.90;;
40022;SDS011;25713;-35.352;149.036;2022-07-23T14:21:53;1.73;;;0.90;;
40022;SDS011;25713;-35.352;149.036;2022-07-23T14:24:23;2.05;;;0.90;;
40022;SDS011;25713;-35.352;149.036;2022-07-23T14:26:52;1.38;;;0.75;;
40022;SDS011;25713;-35.352;149.036;2022-07-23T14:29:21;1.05;;;0.70;;
40022;SDS011;25713;-35.352;149.036;2022-07-23T14:31:51;1.67;;;0.90;;
40022;SDS011;25713;-35.352;149.036;2022-07-23T14:34:22;1.80;;;0.80;;
40022;SDS011;25713;-35.352;149.036;2022-07-23T14:36:51;2.15;;;0.90;;
40022;SDS011;25713;-35.352;149.036;2022-07-23T14:39:21;1.95;;;0.80;;
40022;SDS011;25713;-35.352;149.036;2022-07-23T14:41:51;1.05;;;0.80;;
40022;SDS011;25713;-35.352;149.036;2022-07-23T14:44:21;1.20;;;0.90;;
40022;SDS011;25713;-35.352;149.036;2022-07-23T14:46:50;2.53;;;0.80;;
40022;SDS011;25713;-35.352;149.036;2022-07-23T14:49:24;1.52;;;0.80;;
40022;SDS011;25713;-35.352;149.036;2022-07-23T14:51:54;2.17;;;0.88;;
40022;SDS011;25713;-35.352;149.036;2022-07-23T15:55:38;1.00;;;0.60;;